LRBC/BCM METAR and TAF weather

Enter ICAO airport designator
Station Type Date Time Source
LRBC METAR 2022/06/30 01:30 UTC NOAA

LRBC 300130Z 32002KT CAVOK 18/16 Q1014


Station Type Date Time Source
LRBC Decoded METAR 2022/06/30 01:30 UTC NOAA

Bacau, Romania (LRBC) 46-35N 026-58E 190M
Jun 29, 2022 - 09:30 PM EDT / 2022.06.30 0130 UTC
Wind: from the NW (320 degrees) at 2 MPH (2 KT):0
Visibility: greater than 7 mile(s):0
Temperature: 64 F (18 C)
Dew Point: 60 F (16 C)
Relative Humidity: 88%
Pressure (altimeter): 29.94 in. Hg (1014 hPa)
ob: LRBC 300130Z 32002KT CAVOK 18/16 Q1014
cycle: 1

Station Type Date Time Source
LRBC TAF 2010/08/31 20:30 UTC NOAA

TAF LRBC 312030Z 3121/0203 CNL

Example: see airport list